sensor_id;sensor_type;location;lat;lon;timestamp;temperature;humidity
20370;DHT22;10344;47.592;9.600;2023-08-24T00:01:54;23.50;99.90
20370;DHT22;10344;47.592;9.600;2023-08-24T00:04:22;23.40;99.90
20370;DHT22;10344;47.592;9.600;2023-08-24T00:06:50;23.40;99.90
20370;DHT22;10344;47.592;9.600;2023-08-24T00:09:21;23.30;99.90
20370;DHT22;10344;47.592;9.600;2023-08-24T00:11:49;23.30;99.90
20370;DHT22;10344;47.592;9.600;2023-08-24T00:14:17;23.20;99.90
20370;DHT22;10344;47.592;9.600;2023-08-24T00:16:43;23.20;99.90
20370;DHT22;10344;47.592;9.600;2023-08-24T00:19:11;23.10;99.90
20370;DHT22;10344;47.592;9.600;2023-08-24T00:21:44;23.10;99.90
20370;DHT22;10344;47.592;9.600;2023-08-24T00:24:10;23.00;99.90
20370;DHT22;10344;47.592;9.600;2023-08-24T00:26:43;23.00;99.90
20370;DHT22;10344;47.592;9.600;2023-08-24T00:29:08;23.00;99.90
20370;DHT22;10344;47.592;9.600;2023-08-24T00:31:37;22.90;99.90
20370;DHT22;10344;47.592;9.600;2023-08-24T00:34:03;22.80;99.90
20370;DHT22;10344;47.592;9.600;2023-08-24T00:36:28;22.80;99.90
20370;DHT22;10344;47.592;9.600;2023-08-24T00:38:54;22.80;99.90
20370;DHT22;10344;47.592;9.600;2023-08-24T00:41:19;22.70;99.90
20370;DHT22;10344;47.592;9.600;2023-08-24T00:43:46;22.60;99.90
20370;DHT22;10344;47.592;9.600;2023-08-24T00:46:12;22.60;99.90
20370;DHT22;10344;47.592;9.600;2023-08-24T00:48:38;22.50;99.90
20370;DHT22;10344;47.592;9.600;2023-08-24T00:51:04;22.50;99.90
20370;DHT22;10344;47.592;9.600;2023-08-24T00:53:30;22.50;99.90
20370;DHT22;10344;47.592;9.600;2023-08-24T00:55:59;22.50;99.90
20370;DHT22;10344;47.592;9.600;2023-08-24T00:58:26;22.50;99.90
20370;DHT22;10344;47.592;9.600;2023-08-24T01:00:56;22.50;99.90
20370;DHT22;10344;47.592;9.600;2023-08-24T01:03:27;22.50;99.90
20370;DHT22;10344;47.592;9.600;2023-08-24T01:05:56;22.50;99.90
20370;DHT22;10344;47.592;9.600;2023-08-24T01:08:21;22.40;99.90
20370;DHT22;10344;47.592;9.600;2023-08-24T01:11:02;22.30;99.90
20370;DHT22;10344;47.592;9.600;2023-08-24T01:13:44;22.30;99.90
20370;DHT22;10344;47.592;9.600;2023-08-24T01:16:19;22.30;99.90
20370;DHT22;10344;47.592;9.600;2023-08-24T01:18:52;22.30;99.90
20370;DHT22;10344;47.592;9.600;2023-08-24T01:21:18;22.30;99.90
20370;DHT22;10344;47.592;9.600;2023-08-24T01:26:31;22.30;99.90
20370;DHT22;10344;47.592;9.600;2023-08-24T01:28:57;22.20;99.90
20370;DHT22;10344;47.592;9.600;2023-08-24T01:31:25;22.20;99.90
20370;DHT22;10344;47.592;9.600;2023-08-24T01:33:53;22.10;99.90
20370;DHT22;10344;47.592;9.600;2023-08-24T01:36:21;22.10;99.90
20370;DHT22;10344;47.592;9.600;2023-08-24T01:38:58;22.10;99.90
20370;DHT22;10344;47.592;9.600;2023-08-24T01:41:28;22.10;99.90
20370;DHT22;10344;47.592;9.600;2023-08-24T01:43:58;22.10;99.90
20370;DHT22;10344;47.592;9.600;2023-08-24T01:46:27;22.20;99.90
20370;DHT22;10344;47.592;9.600;2023-08-24T01:48:56;22.20;99.90
20370;DHT22;10344;47.592;9.600;2023-08-24T01:51:21;22.10;99.90
20370;DHT22;10344;47.592;9.600;2023-08-24T01:53:48;22.10;99.90
20370;DHT22;10344;47.592;9.600;2023-08-24T01:56:19;22.00;99.90
20370;DHT22;10344;47.592;9.600;2023-08-24T01:58:47;22.00;99.90
20370;DHT22;10344;47.592;9.600;2023-08-24T02:01:13;22.00;99.90
20370;DHT22;10344;47.592;9.600;2023-08-24T02:03:38;22.00;99.90
20370;DHT22;10344;47.592;9.600;2023-08-24T02:06:11;22.00;99.90
20370;DHT22;10344;47.592;9.600;2023-08-24T02:08:37;22.00;99.90
20370;DHT22;10344;47.592;9.600;2023-08-24T02:11:07;21.90;99.90
20370;DHT22;10344;47.592;9.600;2023-08-24T02:13:35;21.90;99.90
20370;DHT22;10344;47.592;9.600;2023-08-24T02:16:04;21.80;99.90
20370;DHT22;10344;47.592;9.600;2023-08-24T02:18:30;21.90;99.90
20370;DHT22;10344;47.592;9.600;2023-08-24T02:20:55;21.80;99.90
20370;DHT22;10344;47.592;9.600;2023-08-24T02:23:24;21.80;99.90
20370;DHT22;10344;47.592;9.600;2023-08-24T02:25:52;21.70;99.90
20370;DHT22;10344;47.592;9.600;2023-08-24T02:28:17;21.70;99.90
20370;DHT22;10344;47.592;9.600;2023-08-24T02:30:43;21.70;99.90
20370;DHT22;10344;47.592;9.600;2023-08-24T02:33:08;21.70;99.90
20370;DHT22;10344;47.592;9.600;2023-08-24T02:35:34;21.70;99.90
20370;DHT22;10344;47.592;9.600;2023-08-24T02:37:59;21.70;99.90
20370;DHT22;10344;47.592;9.600;2023-08-24T02:40:27;21.70;99.90
20370;DHT22;10344;47.592;9.600;2023-08-24T02:42:57;21.60;99.90
20370;DHT22;10344;47.592;9.600;2023-08-24T02:45:23;21.60;99.90
20370;DHT22;10344;47.592;9.600;2023-08-24T02:47:51;21.40;99.90
20370;DHT22;10344;47.592;9.600;2023-08-24T02:50:17;21.40;99.90
20370;DHT22;10344;47.592;9.600;2023-08-24T02:52:42;21.30;99.90
20370;DHT22;10344;47.592;9.600;2023-08-24T02:55:08;21.30;99.90
20370;DHT22;10344;47.592;9.600;2023-08-24T02:57:34;21.30;99.90
20370;DHT22;10344;47.592;9.600;2023-08-24T03:00:00;21.20;99.90
20370;DHT22;10344;47.592;9.600;2023-08-24T03:02:28;21.20;99.90
20370;DHT22;10344;47.592;9.600;2023-08-24T03:04:59;21.20;99.90
20370;DHT22;10344;47.592;9.600;2023-08-24T03:07:24;21.10;99.90
20370;DHT22;10344;47.592;9.600;2023-08-24T03:09:55;21.20;99.90
20370;DHT22;10344;47.592;9.600;2023-08-24T03:12:21;21.20;99.90
20370;DHT22;10344;47.592;9.600;2023-08-24T03:14:47;21.10;99.90
20370;DHT22;10344;47.592;9.600;2023-08-24T03:17:13;21.20;99.90
20370;DHT22;10344;47.592;9.600;2023-08-24T03:19:41;21.20;99.90
20370;DHT22;10344;47.592;9.600;2023-08-24T03:22:09;21.20;99.90
20370;DHT22;10344;47.592;9.600;2023-08-24T03:24:34;21.20;99.90
20370;DHT22;10344;47.592;9.600;2023-08-24T03:27:00;21.10;99.90
20370;DHT22;10344;47.592;9.600;2023-08-24T03:29:28;21.10;99.90
20370;DHT22;10344;47.592;9.600;2023-08-24T03:31:53;21.10;99.90
20370;DHT22;10344;47.592;9.600;2023-08-24T03:34:22;21.10;99.90
20370;DHT22;10344;47.592;9.600;2023-08-24T03:36:48;21.00;99.90
20370;DHT22;10344;47.592;9.600;2023-08-24T03:39:14;21.00;99.90
20370;DHT22;10344;47.592;9.600;2023-08-24T03:41:40;21.00;99.90
20370;DHT22;10344;47.592;9.600;2023-08-24T03:44:11;20.90;99.90
20370;DHT22;10344;47.592;9.600;2023-08-24T03:46:36;20.90;99.90
20370;DHT22;10344;47.592;9.600;2023-08-24T03:49:04;20.90;99.90
20370;DHT22;10344;47.592;9.600;2023-08-24T03:51:37;20.80;99.90
20370;DHT22;10344;47.592;9.600;2023-08-24T03:54:03;20.80;99.90
20370;DHT22;10344;47.592;9.600;2023-08-24T03:56:30;20.70;99.90
20370;DHT22;10344;47.592;9.600;2023-08-24T03:58:58;20.70;99.90
20370;DHT22;10344;47.592;9.600;2023-08-24T04:01:24;20.70;99.90
20370;DHT22;10344;47.592;9.600;2023-08-24T04:03:49;20.70;99.90
20370;DHT22;10344;47.592;9.600;2023-08-24T04:06:17;20.70;99.90
20370;DHT22;10344;47.592;9.600;2023-08-24T04:08:43;20.60;99.90
20370;DHT22;10344;47.592;9.600;2023-08-24T04:11:11;20.60;99.90
20370;DHT22;10344;47.592;9.600;2023-08-24T04:13:39;20.60;99.90
20370;DHT22;10344;47.592;9.600;2023-08-24T04:16:04;20.50;99.90
20370;DHT22;10344;47.592;9.600;2023-08-24T04:18:30;20.50;99.90
20370;DHT22;10344;47.592;9.600;2023-08-24T04:21:03;20.50;99.90
20370;DHT22;10344;47.592;9.600;2023-08-24T04:23:31;20.50;99.90
20370;DHT22;10344;47.592;9.600;2023-08-24T04:25:57;20.50;99.90
20370;DHT22;10344;47.592;9.600;2023-08-24T04:28:23;20.50;99.90
20370;DHT22;10344;47.592;9.600;2023-08-24T04:30:53;20.50;99.90
20370;DHT22;10344;47.592;9.600;2023-08-24T04:33:21;20.50;99.90
20370;DHT22;10344;47.592;9.600;2023-08-24T04:35:49;20.50;99.90
20370;DHT22;10344;47.592;9.600;2023-08-24T04:38:15;20.50;99.90
20370;DHT22;10344;47.592;9.600;2023-08-24T04:40:55;20.40;99.90
20370;DHT22;10344;47.592;9.600;2023-08-24T04:43:21;20.30;99.90
20370;DHT22;10344;47.592;9.600;2023-08-24T04:45:50;20.30;99.90
20370;DHT22;10344;47.592;9.600;2023-08-24T04:48:22;20.20;99.90
20370;DHT22;10344;47.592;9.600;2023-08-24T04:50:51;20.20;99.90
20370;DHT22;10344;47.592;9.600;2023-08-24T04:53:18;20.20;99.90
20370;DHT22;10344;47.592;9.600;2023-08-24T04:55:43;20.20;99.90
20370;DHT22;10344;47.592;9.600;2023-08-24T04:58:10;20.20;99.90
20370;DHT22;10344;47.592;9.600;2023-08-24T05:00:39;20.30;99.90
20370;DHT22;10344;47.592;9.600;2023-08-24T05:03:07;20.30;99.90
20370;DHT22;10344;47.592;9.600;2023-08-24T05:05:34;20.40;99.90
20370;DHT22;10344;47.592;9.600;2023-08-24T05:08:01;20.40;99.90
20370;DHT22;10344;47.592;9.600;2023-08-24T05:10:29;20.50;99.90
20370;DHT22;10344;47.592;9.600;2023-08-24T05:12:55;20.50;99.90
20370;DHT22;10344;47.592;9.600;2023-08-24T05:15:24;20.50;99.90
20370;DHT22;10344;47.592;9.600;2023-08-24T05:17:51;20.60;99.90
20370;DHT22;10344;47.592;9.600;2023-08-24T05:20:20;20.60;99.90
20370;DHT22;10344;47.592;9.600;2023-08-24T05:22:48;20.70;99.90
20370;DHT22;10344;47.592;9.600;2023-08-24T05:25:14;20.80;99.90
20370;DHT22;10344;47.592;9.600;2023-08-24T05:27:42;20.90;99.90
20370;DHT22;10344;47.592;9.600;2023-08-24T05:30:07;21.00;99.90
20370;DHT22;10344;47.592;9.600;2023-08-24T05:32:36;21.10;99.90
20370;DHT22;10344;47.592;9.600;2023-08-24T05:35:10;21.20;99.90
20370;DHT22;10344;47.592;9.600;2023-08-24T05:37:36;21.30;99.90
20370;DHT22;10344;47.592;9.600;2023-08-24T05:40:02;21.40;99.90
20370;DHT22;10344;47.592;9.600;2023-08-24T05:42:34;21.40;99.90
20370;DHT22;10344;47.592;9.600;2023-08-24T05:45:02;21.50;99.90
20370;DHT22;10344;47.592;9.600;2023-08-24T05:47:28;21.60;99.90
20370;DHT22;10344;47.592;9.600;2023-08-24T05:49:57;21.70;99.90
20370;DHT22;10344;47.592;9.600;2023-08-24T05:52:23;21.80;99.90
20370;DHT22;10344;47.592;9.600;2023-08-24T05:54:48;21.90;99.90
20370;DHT22;10344;47.592;9.600;2023-08-24T05:57:21;21.90;99.90
20370;DHT22;10344;47.592;9.600;2023-08-24T05:59:47;22.00;99.90
20370;DHT22;10344;47.592;9.600;2023-08-24T06:02:12;22.00;99.90
20370;DHT22;10344;47.592;9.600;2023-08-24T06:04:38;22.00;99.90
20370;DHT22;10344;47.592;9.600;2023-08-24T06:07:08;22.00;99.90
20370;DHT22;10344;47.592;9.600;2023-08-24T06:09:34;22.10;99.90
20370;DHT22;10344;47.592;9.600;2023-08-24T06:12:00;22.10;99.90
20370;DHT22;10344;47.592;9.600;2023-08-24T06:14:28;22.20;99.90
20370;DHT22;10344;47.592;9.600;2023-08-24T06:16:59;22.30;99.90
20370;DHT22;10344;47.592;9.600;2023-08-24T06:19:24;22.40;99.90
20370;DHT22;10344;47.592;9.600;2023-08-24T06:21:50;22.50;99.90
20370;DHT22;10344;47.592;9.600;2023-08-24T06:24:21;22.60;99.90
20370;DHT22;10344;47.592;9.600;2023-08-24T06:26:48;22.80;99.90
20370;DHT22;10344;47.592;9.600;2023-08-24T06:29:14;22.90;99.90
20370;DHT22;10344;47.592;9.600;2023-08-24T06:31:47;23.00;99.90
20370;DHT22;10344;47.592;9.600;2023-08-24T06:34:15;23.20;99.90
20370;DHT22;10344;47.592;9.600;2023-08-24T06:36:41;23.30;99.90
20370;DHT22;10344;47.592;9.600;2023-08-24T06:39:13;23.50;99.90
20370;DHT22;10344;47.592;9.600;2023-08-24T06:41:39;23.70;99.90
20370;DHT22;10344;47.592;9.600;2023-08-24T06:44:04;23.90;99.90
20370;DHT22;10344;47.592;9.600;2023-08-24T06:46:31;24.00;99.90
20370;DHT22;10344;47.592;9.600;2023-08-24T06:48:56;24.20;99.90
20370;DHT22;10344;47.592;9.600;2023-08-24T06:51:25;24.40;99.90
20370;DHT22;10344;47.592;9.600;2023-08-24T06:53:53;24.60;99.90
20370;DHT22;10344;47.592;9.600;2023-08-24T06:56:18;25.20;99.90
20370;DHT22;10344;47.592;9.600;2023-08-24T06:58:44;26.20;99.90
20370;DHT22;10344;47.592;9.600;2023-08-24T07:01:10;27.20;99.90
20370;DHT22;10344;47.592;9.600;2023-08-24T07:03:36;28.00;99.90
20370;DHT22;10344;47.592;9.600;2023-08-24T07:06:05;28.60;99.90
20370;DHT22;10344;47.592;9.600;2023-08-24T07:08:31;29.20;99.90
20370;DHT22;10344;47.592;9.600;2023-08-24T07:10:59;29.90;99.90
20370;DHT22;10344;47.592;9.600;2023-08-24T07:13:32;30.50;99.90
20370;DHT22;10344;47.592;9.600;2023-08-24T07:16:00;31.30;99.90
20370;DHT22;10344;47.592;9.600;2023-08-24T07:18:26;31.80;99.90
20370;DHT22;10344;47.592;9.600;2023-08-24T07:20:52;32.20;99.90
20370;DHT22;10344;47.592;9.600;2023-08-24T07:23:21;32.90;99.90
20370;DHT22;10344;47.592;9.600;2023-08-24T07:25:48;33.20;99.90
20370;DHT22;10344;47.592;9.600;2023-08-24T07:28:14;33.30;99.90
20370;DHT22;10344;47.592;9.600;2023-08-24T07:30:40;33.80;99.90
20370;DHT22;10344;47.592;9.600;2023-08-24T07:33:08;34.10;99.90
20370;DHT22;10344;47.592;9.600;2023-08-24T07:35:33;34.40;99.90
20370;DHT22;10344;47.592;9.600;2023-08-24T07:38:00;34.30;99.90
20370;DHT22;10344;47.592;9.600;2023-08-24T07:40:26;34.40;99.90
20370;DHT22;10344;47.592;9.600;2023-08-24T07:42:58;34.50;99.90
20370;DHT22;10344;47.592;9.600;2023-08-24T07:45:24;34.90;99.90
20370;DHT22;10344;47.592;9.600;2023-08-24T07:47:53;35.40;99.90
20370;DHT22;10344;47.592;9.600;2023-08-24T07:50:20;35.80;99.90
20370;DHT22;10344;47.592;9.600;2023-08-24T07:52:47;35.90;99.90
20370;DHT22;10344;47.592;9.600;2023-08-24T07:55:22;35.70;99.90
20370;DHT22;10344;47.592;9.600;2023-08-24T07:57:47;35.60;99.90
20370;DHT22;10344;47.592;9.600;2023-08-24T08:00:14;35.80;99.90
20370;DHT22;10344;47.592;9.600;2023-08-24T08:02:40;35.60;99.90
20370;DHT22;10344;47.592;9.600;2023-08-24T08:05:08;35.30;99.90
20370;DHT22;10344;47.592;9.600;2023-08-24T08:07:38;34.90;99.90
20370;DHT22;10344;47.592;9.600;2023-08-24T08:10:04;34.50;99.90
20370;DHT22;10344;47.592;9.600;2023-08-24T08:12:29;34.80;99.90
20370;DHT22;10344;47.592;9.600;2023-08-24T08:14:57;34.80;99.90
20370;DHT22;10344;47.592;9.600;2023-08-24T08:17:24;34.90;99.90
20370;DHT22;10344;47.592;9.600;2023-08-24T08:19:53;35.30;99.90
20370;DHT22;10344;47.592;9.600;2023-08-24T08:22:19;35.50;99.90
20370;DHT22;10344;47.592;9.600;2023-08-24T08:24:52;35.50;99.90
20370;DHT22;10344;47.592;9.600;2023-08-24T08:27:19;35.50;99.90
20370;DHT22;10344;47.592;9.600;2023-08-24T08:29:45;35.60;99.90
20370;DHT22;10344;47.592;9.600;2023-08-24T08:32:12;35.70;99.90
20370;DHT22;10344;47.592;9.600;2023-08-24T08:34:40;35.50;99.90
20370;DHT22;10344;47.592;9.600;2023-08-24T08:37:07;35.40;99.90
20370;DHT22;10344;47.592;9.600;2023-08-24T08:39:33;35.60;99.90
20370;DHT22;10344;47.592;9.600;2023-08-24T08:41:58;35.70;99.90
20370;DHT22;10344;47.592;9.600;2023-08-24T08:44:29;36.10;99.90
20370;DHT22;10344;47.592;9.600;2023-08-24T08:47:00;36.90;99.90
20370;DHT22;10344;47.592;9.600;2023-08-24T08:49:32;37.00;99.90
20370;DHT22;10344;47.592;9.600;2023-08-24T08:52:00;35.60;99.90
20370;DHT22;10344;47.592;9.600;2023-08-24T08:54:25;35.10;99.90
20370;DHT22;10344;47.592;9.600;2023-08-24T08:56:56;34.50;99.90
20370;DHT22;10344;47.592;9.600;2023-08-24T08:59:22;35.00;99.90
20370;DHT22;10344;47.592;9.600;2023-08-24T09:01:48;35.40;99.90
20370;DHT22;10344;47.592;9.600;2023-08-24T09:04:16;34.70;99.90
20370;DHT22;10344;47.592;9.600;2023-08-24T09:06:45;34.10;99.90
20370;DHT22;10344;47.592;9.600;2023-08-24T09:09:10;34.30;99.90
20370;DHT22;10344;47.592;9.600;2023-08-24T09:11:36;35.10;99.90
20370;DHT22;10344;47.592;9.600;2023-08-24T09:14:03;36.10;99.90
20370;DHT22;10344;47.592;9.600;2023-08-24T09:16:37;36.90;99.90
20370;DHT22;10344;47.592;9.600;2023-08-24T09:19:04;37.20;99.90
20370;DHT22;10344;47.592;9.600;2023-08-24T09:21:36;37.50;99.90
20370;DHT22;10344;47.592;9.600;2023-08-24T09:24:01;37.70;99.90
20370;DHT22;10344;47.592;9.600;2023-08-24T09:26:34;37.70;99.90
20370;DHT22;10344;47.592;9.600;2023-08-24T09:29:05;37.60;99.90
20370;DHT22;10344;47.592;9.600;2023-08-24T09:31:36;37.60;99.90
20370;DHT22;10344;47.592;9.600;2023-08-24T09:34:05;37.20;99.90
20370;DHT22;10344;47.592;9.600;2023-08-24T09:36:34;36.10;99.90
20370;DHT22;10344;47.592;9.600;2023-08-24T09:39:00;34.90;99.90
20370;DHT22;10344;47.592;9.600;2023-08-24T09:44:04;33.70;99.90
20370;DHT22;10344;47.592;9.600;2023-08-24T09:46:30;33.30;99.90
20370;DHT22;10344;47.592;9.600;2023-08-24T09:49:07;33.20;99.90
20370;DHT22;10344;47.592;9.600;2023-08-24T09:51:37;33.10;99.90
20370;DHT22;10344;47.592;9.600;2023-08-24T09:54:13;32.80;99.90
20370;DHT22;10344;47.592;9.600;2023-08-24T09:56:41;32.80;99.90
20370;DHT22;10344;47.592;9.600;2023-08-24T09:59:13;32.60;99.90
20370;DHT22;10344;47.592;9.600;2023-08-24T10:01:49;32.70;99.90
20370;DHT22;10344;47.592;9.600;2023-08-24T10:04:23;32.80;99.90
20370;DHT22;10344;47.592;9.600;2023-08-24T10:06:55;33.10;99.90
20370;DHT22;10344;47.592;9.600;2023-08-24T10:09:31;33.20;99.90
20370;DHT22;10344;47.592;9.600;2023-08-24T10:12:01;33.80;99.90
20370;DHT22;10344;47.592;9.600;2023-08-24T10:14:40;33.80;99.90
20370;DHT22;10344;47.592;9.600;2023-08-24T10:17:07;33.30;99.90
20370;DHT22;10344;47.592;9.600;2023-08-24T10:19:41;32.70;99.90
20370;DHT22;10344;47.592;9.600;2023-08-24T10:22:07;32.00;99.90
20370;DHT22;10344;47.592;9.600;2023-08-24T10:24:35;31.90;99.90
20370;DHT22;10344;47.592;9.600;2023-08-24T10:27:02;32.10;99.90
20370;DHT22;10344;47.592;9.600;2023-08-24T10:29:28;32.30;99.90
20370;DHT22;10344;47.592;9.600;2023-08-24T10:31:54;32.60;99.90
20370;DHT22;10344;47.592;9.600;2023-08-24T10:34:26;33.00;99.90
20370;DHT22;10344;47.592;9.600;2023-08-24T10:36:52;33.40;99.90
20370;DHT22;10344;47.592;9.600;2023-08-24T10:39:26;33.70;99.90
20370;DHT22;10344;47.592;9.600;2023-08-24T10:41:52;33.20;99.90
20370;DHT22;10344;47.592;9.600;2023-08-24T10:44:25;32.40;99.90
20370;DHT22;10344;47.592;9.600;2023-08-24T10:49:42;32.20;99.90
20370;DHT22;10344;47.592;9.600;2023-08-24T10:52:19;32.60;99.90
20370;DHT22;10344;47.592;9.600;2023-08-24T10:54:53;32.80;99.90
20370;DHT22;10344;47.592;9.600;2023-08-24T11:02:27;34.10;99.90
20370;DHT22;10344;47.592;9.600;2023-08-24T11:07:47;34.80;99.90
20370;DHT22;10344;47.592;9.600;2023-08-24T11:10:18;34.40;99.90
20370;DHT22;10344;47.592;9.600;2023-08-24T11:15:31;33.70;99.90
20370;DHT22;10344;47.592;9.600;2023-08-24T11:23:19;33.00;99.90
20370;DHT22;10344;47.592;9.600;2023-08-24T11:25:51;32.70;99.90
20370;DHT22;10344;47.592;9.600;2023-08-24T11:28:20;32.80;99.90
20370;DHT22;10344;47.592;9.600;2023-08-24T11:30:49;32.50;99.90
20370;DHT22;10344;47.592;9.600;2023-08-24T11:33:16;32.10;99.90
20370;DHT22;10344;47.592;9.600;2023-08-24T11:35:48;31.90;99.90
20370;DHT22;10344;47.592;9.600;2023-08-24T11:38:14;31.80;99.90
20370;DHT22;10344;47.592;9.600;2023-08-24T11:40:39;31.60;99.90
20370;DHT22;10344;47.592;9.600;2023-08-24T11:43:05;31.50;99.90
20370;DHT22;10344;47.592;9.600;2023-08-24T11:45:31;31.70;99.90
20370;DHT22;10344;47.592;9.600;2023-08-24T11:48:13;32.00;99.90
20370;DHT22;10344;47.592;9.600;2023-08-24T11:50:39;32.10;99.90
20370;DHT22;10344;47.592;9.600;2023-08-24T11:53:15;32.20;99.90
20370;DHT22;10344;47.592;9.600;2023-08-24T11:55:44;32.30;99.90
20370;DHT22;10344;47.592;9.600;2023-08-24T11:58:19;32.30;99.90
20370;DHT22;10344;47.592;9.600;2023-08-24T12:00:49;32.20;99.90
20370;DHT22;10344;47.592;9.600;2023-08-24T12:03:15;32.30;99.90
20370;DHT22;10344;47.592;9.600;2023-08-24T12:05:43;31.90;99.90
20370;DHT22;10344;47.592;9.600;2023-08-24T12:08:15;31.90;99.90
20370;DHT22;10344;47.592;9.600;2023-08-24T12:10:43;32.20;99.90
20370;DHT22;10344;47.592;9.600;2023-08-24T12:13:12;32.50;99.90
20370;DHT22;10344;47.592;9.600;2023-08-24T12:15:38;32.60;99.90
20370;DHT22;10344;47.592;9.600;2023-08-24T12:18:07;32.90;99.90
20370;DHT22;10344;47.592;9.600;2023-08-24T12:20:32;33.30;99.90
20370;DHT22;10344;47.592;9.600;2023-08-24T12:23:03;33.20;99.90
20370;DHT22;10344;47.592;9.600;2023-08-24T12:25:35;33.10;99.90
20370;DHT22;10344;47.592;9.600;2023-08-24T12:28:13;33.30;99.90
20370;DHT22;10344;47.592;9.600;2023-08-24T12:30:48;33.50;99.90
20370;DHT22;10344;47.592;9.600;2023-08-24T12:33:31;33.70;99.90
20370;DHT22;10344;47.592;9.600;2023-08-24T12:35:57;33.90;99.90
20370;DHT22;10344;47.592;9.600;2023-08-24T12:38:24;34.10;99.90
20370;DHT22;10344;47.592;9.600;2023-08-24T12:41:00;34.30;99.90
20370;DHT22;10344;47.592;9.600;2023-08-24T12:43:28;34.80;99.90
20370;DHT22;10344;47.592;9.600;2023-08-24T12:45:54;35.10;99.90
20370;DHT22;10344;47.592;9.600;2023-08-24T12:48:19;35.10;99.90
20370;DHT22;10344;47.592;9.600;2023-08-24T12:50:45;34.90;99.90
20370;DHT22;10344;47.592;9.600;2023-08-24T12:53:10;34.70;99.90
20370;DHT22;10344;47.592;9.600;2023-08-24T12:55:38;34.70;99.90
20370;DHT22;10344;47.592;9.600;2023-08-24T12:58:11;34.90;99.90
20370;DHT22;10344;47.592;9.600;2023-08-24T13:00:37;35.20;99.90
20370;DHT22;10344;47.592;9.600;2023-08-24T13:03:05;35.40;99.90
20370;DHT22;10344;47.592;9.600;2023-08-24T13:05:38;35.50;99.90
20370;DHT22;10344;47.592;9.600;2023-08-24T13:08:04;35.40;99.90
20370;DHT22;10344;47.592;9.600;2023-08-24T13:10:30;34.70;99.90
20370;DHT22;10344;47.592;9.600;2023-08-24T13:12:55;33.90;99.90
20370;DHT22;10344;47.592;9.600;2023-08-24T13:15:28;33.30;99.90
20370;DHT22;10344;47.592;9.600;2023-08-24T13:17:56;32.80;99.90
20370;DHT22;10344;47.592;9.600;2023-08-24T13:20:23;32.90;99.90
20370;DHT22;10344;47.592;9.600;2023-08-24T13:22:49;33.10;99.90
20370;DHT22;10344;47.592;9.600;2023-08-24T13:25:14;33.10;99.90
20370;DHT22;10344;47.592;9.600;2023-08-24T13:27:42;33.00;99.90
20370;DHT22;10344;47.592;9.600;2023-08-24T13:30:08;33.00;99.90
20370;DHT22;10344;47.592;9.600;2023-08-24T13:32:40;33.10;99.90
20370;DHT22;10344;47.592;9.600;2023-08-24T13:35:14;33.20;99.90
20370;DHT22;10344;47.592;9.600;2023-08-24T13:37:39;33.60;99.90
20370;DHT22;10344;47.592;9.600;2023-08-24T13:40:07;34.00;99.90
20370;DHT22;10344;47.592;9.600;2023-08-24T13:42:33;34.10;99.90
20370;DHT22;10344;47.592;9.600;2023-08-24T13:45:01;34.30;99.90
20370;DHT22;10344;47.592;9.600;2023-08-24T13:47:27;34.30;99.90
20370;DHT22;10344;47.592;9.600;2023-08-24T13:49:55;34.10;99.90
20370;DHT22;10344;47.592;9.600;2023-08-24T13:52:23;34.10;99.90
20370;DHT22;10344;47.592;9.600;2023-08-24T13:54:49;34.20;99.90
20370;DHT22;10344;47.592;9.600;2023-08-24T13:57:19;34.40;99.90
20370;DHT22;10344;47.592;9.600;2023-08-24T13:59:45;34.50;99.90
20370;DHT22;10344;47.592;9.600;2023-08-24T14:02:15;34.50;99.90
20370;DHT22;10344;47.592;9.600;2023-08-24T14:04:43;34.40;99.90
20370;DHT22;10344;47.592;9.600;2023-08-24T14:07:14;34.30;99.90
20370;DHT22;10344;47.592;9.600;2023-08-24T14:09:39;34.20;99.90
20370;DHT22;10344;47.592;9.600;2023-08-24T14:12:07;34.00;99.90
20370;DHT22;10344;47.592;9.600;2023-08-24T14:14:34;33.80;99.90
20370;DHT22;10344;47.592;9.600;2023-08-24T14:17:06;33.60;99.90
20370;DHT22;10344;47.592;9.600;2023-08-24T14:19:31;33.80;99.90
20370;DHT22;10344;47.592;9.600;2023-08-24T14:22:00;34.00;99.90
20370;DHT22;10344;47.592;9.600;2023-08-24T14:24:28;34.10;99.90
20370;DHT22;10344;47.592;9.600;2023-08-24T14:26:55;34.00;99.90
20370;DHT22;10344;47.592;9.600;2023-08-24T14:29:25;34.00;99.90
20370;DHT22;10344;47.592;9.600;2023-08-24T14:31:50;34.00;99.90
20370;DHT22;10344;47.592;9.600;2023-08-24T14:34:16;33.90;99.90
20370;DHT22;10344;47.592;9.600;2023-08-24T14:36:44;33.80;99.90
20370;DHT22;10344;47.592;9.600;2023-08-24T14:39:09;33.60;99.90
20370;DHT22;10344;47.592;9.600;2023-08-24T14:41:37;33.60;99.90
20370;DHT22;10344;47.592;9.600;2023-08-24T14:44:03;33.60;99.90
20370;DHT22;10344;47.592;9.600;2023-08-24T14:46:29;33.90;99.90
20370;DHT22;10344;47.592;9.600;2023-08-24T14:48:57;34.00;99.90
20370;DHT22;10344;47.592;9.600;2023-08-24T14:51:25;34.20;99.90
20370;DHT22;10344;47.592;9.600;2023-08-24T14:53:56;34.30;99.90
20370;DHT22;10344;47.592;9.600;2023-08-24T14:56:21;34.50;99.90
20370;DHT22;10344;47.592;9.600;2023-08-24T14:58:50;34.50;99.90
20370;DHT22;10344;47.592;9.600;2023-08-24T15:01:16;34.60;99.90
20370;DHT22;10344;47.592;9.600;2023-08-24T15:03:52;34.60;99.90
20370;DHT22;10344;47.592;9.600;2023-08-24T15:06:23;34.60;99.90
20370;DHT22;10344;47.592;9.600;2023-08-24T15:08:49;34.40;99.90
20370;DHT22;10344;47.592;9.600;2023-08-24T15:11:15;34.20;99.90
20370;DHT22;10344;47.592;9.600;2023-08-24T15:13:56;34.30;99.90
20370;DHT22;10344;47.592;9.600;2023-08-24T15:16:26;34.50;99.90
20370;DHT22;10344;47.592;9.600;2023-08-24T15:18:54;34.70;99.90
20370;DHT22;10344;47.592;9.600;2023-08-24T15:21:20;34.90;99.90
20370;DHT22;10344;47.592;9.600;2023-08-24T15:23:45;35.20;99.90
20370;DHT22;10344;47.592;9.600;2023-08-24T15:26:11;35.40;99.90
20370;DHT22;10344;47.592;9.600;2023-08-24T15:31:37;34.80;99.90
20370;DHT22;10344;47.592;9.600;2023-08-24T15:34:11;34.70;99.90
20370;DHT22;10344;47.592;9.600;2023-08-24T15:36:43;34.80;99.90
20370;DHT22;10344;47.592;9.600;2023-08-24T15:39:09;34.80;99.90
20370;DHT22;10344;47.592;9.600;2023-08-24T15:41:37;34.80;99.90
20370;DHT22;10344;47.592;9.600;2023-08-24T15:44:14;34.60;99.90
20370;DHT22;10344;47.592;9.600;2023-08-24T15:46:42;34.50;99.90
20370;DHT22;10344;47.592;9.600;2023-08-24T15:49:10;34.40;99.90
20370;DHT22;10344;47.592;9.600;2023-08-24T15:51:44;34.60;99.90
20370;DHT22;10344;47.592;9.600;2023-08-24T15:54:09;34.80;99.90
20370;DHT22;10344;47.592;9.600;2023-08-24T15:56:44;34.90;99.90
20370;DHT22;10344;47.592;9.600;2023-08-24T15:59:18;34.90;99.90
20370;DHT22;10344;47.592;9.600;2023-08-24T16:01:47;35.00;99.90
20370;DHT22;10344;47.592;9.600;2023-08-24T16:04:15;35.10;99.90